Flight Track Log - Related Links

Times and Time Zones

All times are in EDT time to prevent confusion due to time zone crossing. See the AAL1459 flight status page for this flight to view local times or setup timezone preferences in your user account.

Time Position Orientation Groundspeed Altitude Reporting Facility
EDT Latitude Longitude Course Direction KTS MPH feet Rate Location/Type
Sat 02:19:42 PM 42.4050 -71.0690 303° West 208 239 2,400  Level FlightAware ADS-B
Sat 02:20:32 PM 42.4320 -71.1270 302° West 234 269 4,100 2,329 Climbing FlightAware ADS-B
Sat 02:21:07 PM 42.4630 -71.1630 319° Northwest 253 291 5,700 2,760 Climbing FlightAware ADS-B
Sat 02:21:22 PM 42.4790 -71.1680 347° North 257 296 6,400 2,250 Climbing FlightAware ADS-B
Sat 02:21:47 PM 42.5100 -71.1780 347° North 278 320 7,200 2,400 Climbing FlightAware ADS-B
Sat 02:22:17 PM 42.5490 -71.1930 344° North 286 329 8,600 2,700 Climbing FlightAware ADS-B
Sat 02:22:47 PM 42.5890 -71.2070 346° North 298 343 9,900 1,971 Climbing FlightAware ADS-B
Sat 02:23:27 PM 42.6440 -71.2270 345° North 339 390 10,900 1,725 Climbing FlightAware ADS-B
Sat 02:24:07 PM 42.7100 -71.2500 346° North 374 430 12,200 2,314 Climbing FlightAware ADS-B
Sat 02:24:37 PM 42.7570 -71.2780 336° Northwest 349 402 13,600 2,700 Climbing FlightAware ADS-B
Sat 02:25:07 PM 42.7830 -71.3260 306° West 317 365 14,900 2,769 Climbing FlightAware ADS-B
Sat 02:25:42 PM 42.7930 -71.3920 282° West 309 356 16,600 2,700 Climbing FlightAware ADS-B
Sat 02:26:27 PM 42.8010 -71.4780 277° West 321 369 18,500 2,471 Climbing FlightAware ADS-B
Sat 02:27:07 PM 42.8090 -71.5640 277° West 334 384 20,100 2,471 Climbing FlightAware ADS-B
Sat 02:27:52 PM 42.8180 -71.6570 278° West 339 390 22,000 2,467 Climbing FlightAware ADS-B
Sat 02:28:37 PM 42.8270 -71.7560 277° West 344 396 23,800 2,259 Climbing FlightAware ADS-B
Sat 02:29:17 PM 42.8360 -71.8430 278° West 347 399 25,200 2,025 Climbing FlightAware ADS-B
Sat 02:29:57 PM 42.8440 -71.9280 277° West 351 404 26,500 1,906 Climbing FlightAware ADS-B
Sat 02:30:42 PM 42.8530 -72.0260 277° West 353 406 27,900 1,835 Climbing FlightAware ADS-B
Sat 02:31:22 PM 42.8610 -72.1140 277° West 356 410 29,100 1,650 Climbing FlightAware ADS-B
Sat 02:32:02 PM 42.8690 -72.2030 277° West 358 412 30,100 1,694 Climbing FlightAware ADS-B
Sat 02:32:47 PM 42.8780 -72.3060 277° West 356 410 31,500 1,694 Climbing FlightAware ADS-B
Sat 02:33:27 PM 42.8860 -72.3950 277° West 358 412 32,500 1,425 Climbing FlightAware ADS-B
Sat 02:34:07 PM 42.8940 -72.4860 277° West 358 412 33,400 1,350 Climbing FlightAware ADS-B
Sat 02:34:47 PM 42.9020 -72.5720 277° West 356 410 34,300 1,267 Climbing FlightAware ADS-B
Sat 02:35:37 PM 42.9110 -72.6820 276° West 357 411 35,300 1,133 Climbing FlightAware ADS-B
Sat 02:36:17 PM 42.9190 -72.7730 277° West 358 412 36,000 1,137 Climbing FlightAware ADS-B
Sat 02:37:12 PM 42.9300 -72.8960 277° West 353 406 37,100 1,020 Climbing FlightAware ADS-B
Sat 02:37:57 PM 42.9380 -72.9950 276° West 355 409 37,700 635 Climbing FlightAware ADS-B
Sat 02:38:37 PM 42.9450 -73.0850 276° West 362 417 38,000 164 Climbing FlightAware ADS-B
Sat 02:39:47 PM 42.9560 -73.2130 277° West 363 418 38,000  Level FlightAware ADS-B
Sat 02:40:27 PM 42.9630 -73.3020 276° West 367 422 38,000  Level FlightAware ADS-B
Sat 02:41:12 PM 42.9740 -73.4430 276° West 370 426 38,000  Level FlightAware ADS-B
Sat 02:41:52 PM 42.9810 -73.5340 276° West 370 426 38,000  Level FlightAware ADS-B
Sat 02:42:32 PM 42.9890 -73.6270 277° West 373 429 38,000  Level FlightAware ADS-B
Sat 02:43:17 PM 42.9970 -73.7310 276° West 374 430 38,000  Level FlightAware ADS-B
Sat 02:43:57 PM 43.0040 -73.8250 276° West 373 429 38,000  Level FlightAware ADS-B
Sat 02:44:42 PM 43.0120 -73.9310 276° West 377 434 38,000  Level FlightAware ADS-B
Sat 02:45:22 PM 43.0190 -74.0250 276° West 380 437 38,000  Level FlightAware ADS-B
Sat 02:46:07 PM 43.0270 -74.1340 276° West 380 437 38,000  Level FlightAware ADS-B
Sat 02:46:47 PM 43.0350 -74.2320 276° West 382 440 38,000  Level FlightAware ADS-B
Sat 02:47:17 PM 43.0390 -74.2970 275° West 382 440 38,000  Level FlightAware ADS-B
Sat 02:48:52 PM 43.0550 -74.5140 276° West 376 433 38,000  Level FlightAware ADS-B
Sat 02:49:32 PM 43.0610 -74.6020 275° West 377 434 38,000  Level FlightAware ADS-B
Sat 02:50:17 PM 43.0690 -74.7190 275° West 377 434 38,000  Level FlightAware ADS-B
Sat 02:50:57 PM 43.0750 -74.8040 276° West 377 434 38,000  Level FlightAware ADS-B
Sat 02:51:42 PM 43.0820 -74.9170 275° West 381 438 38,000  Level FlightAware ADS-B
Sat 02:52:22 PM 43.0890 -75.0160 276° West 383 441 38,000  Level FlightAware ADS-B
Sat 02:53:07 PM 43.0960 -75.1230 275° West 385 443 38,000  Level FlightAware ADS-B
Sat 02:53:47 PM 43.1020 -75.2200 275° West 387 445 38,000  Level FlightAware ADS-B
Sat 02:54:27 PM 43.1080 -75.3190 275° West 388 447 38,000  Level FlightAware ADS-B
Sat 02:55:12 PM 43.1150 -75.4270 275° West 388 447 38,000  Level FlightAware ADS-B
Sat 02:55:52 PM 43.1210 -75.5280 275° West 387 445 38,000  Level FlightAware ADS-B
Sat 02:56:37 PM 43.1280 -75.6370 275° West 385 443 38,000  Level FlightAware ADS-B
Sat 02:57:17 PM 43.1330 -75.7330 274° West 384 442 38,000  Level FlightAware ADS-B
Sat 02:58:02 PM 43.1400 -75.8380 275° West 383 441 38,000  Level FlightAware ADS-B
Sat 02:58:37 PM 43.1450 -75.9230 275° West 382 440 38,000  Level FlightAware ADS-B
Sat 02:59:22 PM 43.1510 -76.0320 274° West 381 438 38,000  Level FlightAware ADS-B
Sat 03:00:07 PM 43.1570 -76.1420 274° West 381 438 38,000  Level FlightAware ADS-B
Sat 03:00:47 PM 43.1600 -76.2370 273° West 374 430 38,000  Level FlightAware ADS-B
Sat 03:01:32 PM 43.1610 -76.3440 271° West 374 430 38,000  Level FlightAware ADS-B
Sat 03:02:12 PM 43.1600 -76.4380 269° West 374 430 38,000  Level FlightAware ADS-B
Sat 03:02:52 PM 43.1610 -76.5320 271° West 374 430 38,000  Level FlightAware ADS-B
Sat 03:03:37 PM 43.1600 -76.6380 269° West 374 430 38,000  Level FlightAware ADS-B
Sat 03:04:17 PM 43.1600 -76.7310 270° West 375 432 38,000  Level FlightAware ADS-B
Sat 03:04:52 PM 43.1590 -76.8150 269° West 377 434 38,000  Level FlightAware ADS-B
Sat 03:05:42 PM 43.1590 -76.9340 270° West 376 433 38,000  Level FlightAware ADS-B
Sat 03:06:22 PM 43.1580 -77.0310 269° West 375 432 38,000  Level FlightAware ADS-B
Sat 03:07:07 PM 43.1570 -77.1360 269° West 373 429 38,000  Level FlightAware ADS-B
Sat 03:07:47 PM 43.1570 -77.2310 270° West 373 429 38,000  Level FlightAware ADS-B
Sat 03:08:32 PM 43.1560 -77.3370 269° West 373 429 38,000  Level FlightAware ADS-B
Sat 03:09:12 PM 43.1550 -77.4310 269° West 378 435 38,000  Level FlightAware ADS-B
Sat 03:09:52 PM 43.1540 -77.5170 269° West 378 435 38,000  Level FlightAware ADS-B
Sat 03:10:37 PM 43.1530 -77.6350 269° West 379 436 38,000  Level FlightAware ADS-B
Sat 03:11:17 PM 43.1520 -77.7300 269° West 380 437 38,000  Level FlightAware ADS-B
Sat 03:11:57 PM 43.1500 -77.8250 268° West 380 437 38,000  Level FlightAware ADS-B
Sat 03:12:42 PM 43.1490 -77.9340 269° West 382 440 38,000  Level FlightAware ADS-B
Sat 03:13:22 PM 43.1470 -78.0290 268° West 383 441 38,000  Level FlightAware ADS-B
Sat 03:14:07 PM 43.1460 -78.1410 269° West 384 442 38,000  Level FlightAware ADS-B
Sat 03:14:47 PM 43.1440 -78.2370 268° West 386 444 38,000  Level FlightAware ADS-B
Sat 03:15:32 PM 43.1420 -78.3480 269° West 387 445 38,000  Level FlightAware ADS-B
Sat 03:16:07 PM 43.1400 -78.4320 268° West 386 444 38,000  Level FlightAware ADS-B
Sat 03:16:52 PM 43.1370 -78.5400 268° West 386 444 38,000  Level FlightAware ADS-B
Sat 03:17:32 PM 43.1350 -78.6400 268° West 386 444 38,000  Level FlightAware ADS-B
Sat 03:18:17 PM 43.1320 -78.7500 268° West 386 444 38,000  Level FlightAware ADS-B
Sat 03:18:57 PM 43.1290 -78.8480 268° West 387 445 38,000  Level FlightAware ADS-B
Sat 03:19:42 PM 43.1250 -78.9580 267° West 387 445 38,000  Level FlightAware ADS-B
Sat 03:20:22 PM 43.1240 -79.0550 269° West 387 445 38,000  Level FlightAware ADS-B
Sat 03:21:07 PM 43.1230 -79.1650 269° West 384 442 38,000  Level FlightAware ADS-B
Sat 03:21:47 PM 43.1210 -79.2610 268° West 383 441 38,000  Level FlightAware ADS-B
Sat 03:22:32 PM 43.1190 -79.3700 269° West 381 438 38,000  Level FlightAware ADS-B
Sat 03:23:12 PM 43.1180 -79.4650 269° West 380 437 38,000  Level FlightAware ADS-B
Sat 03:23:52 PM 43.1160 -79.5560 268° West 379 436 38,000  Level FlightAware ADS-B
Sat 03:24:37 PM 43.1140 -79.6700 269° West 381 438 38,000  Level FlightAware ADS-B
Sat 03:25:17 PM 43.1120 -79.7670 268° West 387 445 38,000  Level FlightAware ADS-B
Sat 03:26:02 PM 43.1100 -79.8720 269° West 388 447 38,000  Level FlightAware ADS-B
Sat 03:26:42 PM 43.1090 -79.9730 269° West 388 447 38,000  Level FlightAware ADS-B
Sat 03:27:22 PM 43.1060 -80.0720 268° West 389 448 38,000  Level FlightAware ADS-B
Sat 03:28:02 PM 43.1040 -80.1710 268° West 392 451 38,000  Level FlightAware ADS-B
Sat 03:28:47 PM 43.1010 -80.2820 268° West 394 453 38,000  Level FlightAware ADS-B
Sat 03:29:32 PM 43.0990 -80.3920 269° West 395 455 38,000  Level FlightAware ADS-B
Sat 03:30:12 PM 43.0960 -80.4940 268° West 395 455 38,000  Level FlightAware ADS-B
Sat 03:30:52 PM 43.0940 -80.5900 268° West 396 456 38,000  Level FlightAware ADS-B
Sat 03:31:37 PM 43.0910 -80.7040 268° West 395 455 38,000  Level FlightAware ADS-B
Sat 03:32:17 PM 43.0880 -80.8050 268° West 394 453 38,000  Level FlightAware ADS-B
Sat 03:33:02 PM 43.0840 -80.9170 267° West 393 452 38,000  Level FlightAware ADS-B
Sat 03:33:42 PM 43.0820 -81.0150 268° West 392 451 38,000  Level FlightAware ADS-B
Sat 03:34:22 PM 43.0790 -81.1140 268° West 390 449 38,000  Level FlightAware ADS-B
Sat 03:35:02 PM 43.0760 -81.2130 268° West 388 447 38,000  Level FlightAware ADS-B
Sat 03:35:47 PM 43.0720 -81.3210 267° West 386 444 38,000  Level FlightAware ADS-B
Sat 03:36:27 PM 43.0690 -81.4190 268° West 385 443 38,000  Level FlightAware ADS-B
Sat 03:37:12 PM 43.0650 -81.5290 267° West 385 443 38,000  Level FlightAware ADS-B
Sat 03:37:52 PM 43.0620 -81.6230 268° West 388 447 38,000  Level FlightAware ADS-B
Sat 03:38:37 PM 43.0580 -81.7310 267° West 388 447 38,000  Level FlightAware ADS-B
Sat 03:39:17 PM 43.0540 -81.8330 267° West 389 448 38,000  Level FlightAware ADS-B
Sat 03:39:57 PM 43.0510 -81.9300 268° West 393 452 38,000  Level FlightAware ADS-B
Sat 03:40:42 PM 43.0460 -82.0370 266° West 394 453 38,000  Level FlightAware ADS-B
Sat 03:41:17 PM 43.0430 -82.1290 267° West 395 455 38,000  Level FlightAware ADS-B
Sat 03:42:22 PM 43.0370 -82.2750 267° West 395 455 38,000  Level FlightAware ADS-B
Sat 03:43:02 PM 43.0320 -82.3800 266° West 397 457 38,000  Level FlightAware ADS-B
Sat 03:43:37 PM 43.0290 -82.4740 268° West 397 457 38,000  Level FlightAware ADS-B
Sat 03:44:27 PM 43.0230 -82.5950 266° West 398 458 38,000  Level FlightAware ADS-B
Sat 03:45:02 PM 43.0190 -82.6910 267° West 399 459 38,000  Level FlightAware ADS-B
Sat 03:45:42 PM 43.0140 -82.7940 266° West 400 460 38,000  Level FlightAware ADS-B
Sat 03:46:27 PM 43.0090 -82.9010 266° West 400 460 38,000  Level FlightAware ADS-B
Sat 03:47:22 PM 43.0030 -83.0340 267° West 400 460 38,000  Level FlightAware ADS-B
Sat 03:48:12 PM 42.9970 -83.1600 266° West 401 461 38,000  Level FlightAware ADS-B
Sat 03:48:42 PM 42.9930 -83.2420 266° West 403 464 38,000  Level FlightAware ADS-B
Sat 03:49:27 PM 42.9870 -83.3580 266° West 403 464 38,000  Level FlightAware ADS-B
Sat 03:50:17 PM 42.9810 -83.4830 266° West 403 464 38,000  Level FlightAware ADS-B
Sat 03:50:57 PM 42.9750 -83.5870 266° West 405 466 38,000  Level FlightAware ADS-B
Sat 03:51:37 PM 42.9700 -83.6830 266° West 405 466 38,000  Level FlightAware ADS-B
Sat 03:52:22 PM 42.9620 -83.7980 265° West 405 466 38,000 -150 Level FlightAware ADS-B
Sat 03:52:57 PM 42.9510 -83.9080 262° West 404 465 37,800 -706 Descending FlightAware ADS-B
Sat 03:53:47 PM 42.9400 -84.0260 263° West 397 457 37,000 -933 Descending FlightAware ADS-B
Sat 03:54:27 PM 42.9300 -84.1280 262° West 391 450 36,400 -1,050 Descending FlightAware ADS-B
Sat 03:55:07 PM 42.9200 -84.2280 262° West 388 447 35,600 -1,412 Descending FlightAware ADS-B
Sat 03:55:52 PM 42.9090 -84.3360 262° West 388 447 34,400 -1,624 Descending FlightAware ADS-B
Sat 03:56:32 PM 42.9000 -84.4310 263° West 381 438 33,300 -1,650 Descending FlightAware ADS-B
Sat 03:57:12 PM 42.8900 -84.5270 262° West 382 440 32,200 -918 Descending FlightAware ADS-B
Sat 03:57:57 PM 42.8790 -84.6340 262° West 388 447 32,000 -141 Descending FlightAware ADS-B
Sat 03:58:37 PM 42.8680 -84.7350 262° West 389 448 32,000  Level FlightAware ADS-B
Sat 03:59:22 PM 42.8570 -84.8440 262° West 390 449 32,000  Level FlightAware ADS-B
Sat 04:00:02 PM 42.8470 -84.9390 262° West 387 445 32,000  Level FlightAware ADS-B
Sat 04:00:42 PM 42.8370 -85.0340 262° West 383 441 32,000  Level FlightAware ADS-B
Sat 04:01:27 PM 42.8260 -85.1420 262° West 382 440 32,000  Level FlightAware ADS-B
Sat 04:02:07 PM 42.8150 -85.2380 261° West 372 428 32,000  Level FlightAware ADS-B
Sat 04:02:52 PM 42.8040 -85.3340 261° West 338 389 32,000 -141 Level FlightAware ADS-B
Sat 04:03:32 PM 42.7950 -85.4180 262° West 336 387 31,800 -675 Descending FlightAware ADS-B
Sat 04:04:12 PM 42.7860 -85.5020 262° West 333 383 31,100 -1,059 Descending FlightAware ADS-B
Sat 04:04:57 PM 42.7700 -85.5900 256° West 328 377 30,300 -1,341 Descending FlightAware ADS-B
Sat 04:05:37 PM 42.7570 -85.6660 257° West 317 365 29,200 -1,765 Descending FlightAware ADS-B
Sat 04:06:22 PM 42.7410 -85.7540 256° West 306 352 27,800 -1,765 Descending FlightAware ADS-B
Sat 04:07:02 PM 42.7280 -85.8250 256° West 298 343 26,700 -1,650 Descending FlightAware ADS-B
Sat 04:07:42 PM 42.7150 -85.8980 256° West 289 333 25,600 -1,906 Descending FlightAware ADS-B
Sat 04:08:27 PM 42.6990 -85.9820 255° West 313 360 24,000 -1,906 Descending FlightAware ADS-B
Sat 04:09:07 PM 42.6860 -86.0550 256° West 325 374 22,900 -1,875 Descending FlightAware ADS-B
Sat 04:09:47 PM 42.6710 -86.1380 256° West 324 373 21,500 -1,976 Descending FlightAware ADS-B
Sat 04:10:32 PM 42.6540 -86.2260 255° West 326 375 20,100 -1,341 Descending FlightAware ADS-B
Sat 04:11:12 PM 42.6400 -86.3000 256° West 323 372 19,600 -1,059 Descending FlightAware ADS-B
Sat 04:11:57 PM 42.6230 -86.3920 256° West 313 360 18,600 -1,412 Descending FlightAware ADS-B
Sat 04:12:37 PM 42.6090 -86.4680 256° West 310 357 17,600 -1,500 Descending FlightAware ADS-B
Sat 04:13:17 PM 42.5950 -86.5430 256° West 307 353 16,600 -1,412 Descending FlightAware ADS-B
Sat 04:14:02 PM 42.5800 -86.6240 256° West 303 349 15,600 -1,341 Descending FlightAware ADS-B
Sat 04:14:42 PM 42.5660 -86.6980 256° West 298 343 14,700 -1,271 Descending FlightAware ADS-B
Sat 04:15:27 PM 42.5470 -86.7760 252° West 298 343 13,800 -1,341 Descending FlightAware ADS-B
Sat 04:16:07 PM 42.5260 -86.8500 249° West 297 342 12,800 -1,341 Descending FlightAware ADS-B
Sat 04:16:52 PM 42.5050 -86.9280 250° West 299 344 11,900 -1,271 Descending FlightAware ADS-B
Sat 04:17:32 PM 42.4860 -86.9990 250° West 290 334 11,000 -1,271 Descending FlightAware ADS-B
Sat 04:18:17 PM 42.4660 -87.0740 250° West 281 323 10,100 -1,114 Descending FlightAware ADS-B
Sat 04:18:42 PM 42.4550 -87.1130 249° West 267 307 9,700 -764 Descending FlightAware ADS-B
Sat 04:19:12 PM 42.4420 -87.1620 250° West 262 302 9,400 -655 Descending FlightAware ADS-B
Sat 04:19:37 PM 42.4310 -87.2000 249° West 262 302 9,100 -655 Descending FlightAware ADS-B
Sat 04:20:07 PM 42.4160 -87.2440 245° Southwest 271 312 8,800 -533 Descending FlightAware ADS-B
Sat 04:20:22 PM 42.4030 -87.2570 216° Southwest 280 322 8,700 -200 Descending FlightAware ADS-B
Sat 04:20:37 PM 42.3840 -87.2630 193° South 287 330 8,700  Level FlightAware ADS-B
Sat 04:21:02 PM 42.3470 -87.2610 178° South 287 330 8,700 -218 Level FlightAware ADS-B
Sat 04:21:32 PM 42.3090 -87.2630 182° South 285 328 8,500 -982 Descending FlightAware ADS-B
Sat 04:21:57 PM 42.2750 -87.2650 182° South 287 330 7,800 -1,636 Descending FlightAware ADS-B
Sat 04:22:27 PM 42.2350 -87.2680 183° South 281 323 7,000 -1,300 Descending FlightAware ADS-B
Sat 04:22:57 PM 42.1970 -87.2790 192° South 268 308 6,500 -982 Descending FlightAware ADS-B
Sat 04:23:22 PM 42.1690 -87.2870 192° South 260 299 6,100 -982 Descending FlightAware ADS-B
Sat 04:23:52 PM 42.1330 -87.2970 192° South 257 296 5,600 -1,067 Descending FlightAware ADS-B
Sat 04:24:07 PM 42.1150 -87.3020 192° South 257 296 5,300 -900 Descending FlightAware ADS-B
Sat 04:24:32 PM 42.0860 -87.3100 192° South 259 298 5,000 -600 Descending FlightAware ADS-B
Sat 04:24:47 PM 42.0700 -87.3140 191° South 260 299 4,900 -400 Descending FlightAware ADS-B
Sat 04:25:17 PM 42.0340 -87.3300 198° South 250 288 4,700 -300 Descending FlightAware ADS-B
Sat 04:25:27 PM 42.0260 -87.3420 228° Southwest 246 283 4,700  Level FlightAware ADS-B
Sat 04:25:57 PM 42.0060 -87.3790 234° Southwest 244 281 4,700  Level FlightAware ADS-B
Sat 04:26:27 PM 41.9880 -87.4150 236° Southwest 236 272 4,700  Level FlightAware ADS-B
Sat 04:26:52 PM 41.9840 -87.4510 262° West 241 277 4,700  Level FlightAware ADS-B
Sat 04:27:07 PM 41.9830 -87.4750 267° West 242 278 4,700  Level FlightAware ADS-B
Sat 04:27:32 PM 41.9830 -87.5110 270° West 241 277 4,700  Level FlightAware ADS-B
Sat 04:28:02 PM 41.9840 -87.5540 272° West 219 252 4,700  Level FlightAware ADS-B
Sat 04:28:32 PM 41.9840 -87.5950 270° West 205 236 4,700 -327 Level FlightAware ADS-B
Sat 04:28:57 PM 41.9840 -87.6230 270° West 205 236 4,400 -933 Descending FlightAware ADS-B
Sat 04:29:17 PM 41.9840 -87.6490 270° West 204 235 4,000 -1,100 Descending FlightAware ADS-B
Sat 04:29:57 PM 41.9840 -87.6990 270° West 203 234 3,300 -1,080 Descending FlightAware ADS-B
Sat 04:30:07 PM 41.9840 -87.7100 270° West 204 235 3,100 -1,200 Descending FlightAware ADS-B
Sat 04:30:52 PM 41.9840 -87.7710 270° West 189 217 2,200 -1,200 Descending FlightAware ADS-B
Sat 04:31:17 PM 41.9840 -87.7980 270° West 164 189 1,700 -1,050 Descending FlightAware ADS-B
Sat 04:31:32 PM 41.9840 -87.8110 270° West 150 173 1,500 -764 Descending FlightAware ADS-B
Sat 04:32:12 PM 41.9840 -87.8480 270° West 144 166 1,000 -771 Descending FlightAware ADS-B
Sat 04:32:42 PM 41.9840 -87.8720 270° West 140 161 600 -764 Descending FlightAware ADS-B
Sat 04:33:07 PM 41.9840 -87.8940 270° West 137 158 300 -720 Descending FlightAware ADS-B

Login

Don't have an account? Register now (free) for customized features, flight alerts, and more!